Time;durP1;ratioP1;P1;durP2;ratioP2;P2;SDS_P1;SDS_P2;PMS_P1;PMS_P2;Temp;Humidity;BMP_temperature;BMP_pressure;BME280_temperature;BME280_humidity;BME280_pressure;Samples;Min_cycle;Max_cycle;Signal;HPM_P1;HPM_P2
2022/11/03 00:01:12;;;;;;;0.77;0.77;;;;;;;12.33;90.95;95898.50;4328101;32;20182;-65
2022/11/03 00:03:39;;;;;;;1.03;1.03;;;;;;;12.23;89.35;95894.16;4300700;33;20257;-65
2022/11/03 00:06:06;;;;;;;1.30;1.30;;;;;;;12.18;89.96;95896.88;4336990;32;20276;-65
2022/11/03 00:08:39;;;;;;;0.83;0.83;;;;;;;12.03;89.15;95894.47;4313570;33;20174;-65
2022/11/03 00:11:11;;;;;;;0.90;0.90;;;;;;;12.41;90.16;95889.09;4322032;32;20229;-65
2022/11/03 00:13:41;;;;;;;1.80;1.47;;;;;;;12.11;89.82;95888.47;4337183;32;20177;-65
2022/11/03 00:16:11;;;;;;;1.27;1.27;;;;;;;12.13;88.67;95875.69;4304664;33;20227;-65
2022/11/03 00:18:38;;;;;;;1.43;1.33;;;;;;;11.90;89.70;95879.19;4281693;33;20249;-65
2022/11/03 00:21:07;;;;;;;1.43;1.07;;;;;;;12.12;90.60;95871.44;4321017;32;20181;-65
2022/11/03 00:23:45;;;;;;;0.90;0.83;;;;;;;12.08;89.40;95870.44;4308397;33;20182;-65
2022/11/03 00:26:16;;;;;;;0.73;0.73;;;;;;;12.24;90.08;95858.50;4330307;32;20243;-65
2022/11/03 00:29:08;;;;;;;1.17;1.10;;;;;;;12.36;90.32;95850.84;4311434;32;20189;-65
2022/11/03 00:31:38;;;;;;;0.90;0.90;;;;;;;12.20;89.36;95851.38;4332731;32;20224;-65
2022/11/03 00:34:11;;;;;;;4.57;1.30;;;;;;;12.35;89.29;95843.16;4286818;33;20227;-65
2022/11/03 00:36:41;;;;;;;1.30;1.20;;;;;;;12.38;89.74;95851.34;4340664;32;20244;-65
2022/11/03 00:39:09;;;;;;;0.70;0.70;;;;;;;12.28;89.50;95850.69;4318300;32;20216;-65
2022/11/03 00:41:35;;;;;;;1.03;1.03;;;;;;;12.21;89.15;95851.09;4327644;32;22138;-65
2022/11/03 00:44:05;;;;;;;1.30;0.90;;;;;;;12.14;90.32;95848.00;4325245;32;20232;-65
2022/11/03 00:46:34;;;;;;;0.70;0.70;;;;;;;11.93;87.94;95857.38;4294420;33;20273;-65
2022/11/03 00:49:03;;;;;;;1.03;1.03;;;;;;;12.03;89.69;95843.94;4300258;33;20261;-65
2022/11/03 00:51:30;;;;;;;1.03;1.03;;;;;;;12.30;90.16;95833.38;4297690;33;20186;-65
2022/11/03 00:54:03;;;;;;;0.73;0.73;;;;;;;12.13;89.02;95830.47;4277281;33;20247;-65
2022/11/03 00:56:37;;;;;;;0.87;0.87;;;;;;;12.32;89.86;95828.56;4317425;33;20227;-66
2022/11/03 00:59:17;;;;;;;9.83;1.10;;;;;;;12.29;89.76;95821.16;4309832;33;20190;-65
2022/11/03 01:01:44;;;;;;;0.63;0.63;;;;;;;12.29;90.13;95815.03;4310765;33;20292;-66
2022/11/03 01:06:59;;;;;;;1.50;1.43;;;;;;;12.16;90.01;95819.25;4295126;33;20197;-65
2022/11/03 01:09:37;;;;;;;0.83;0.80;;;;;;;12.26;90.62;95813.75;4274414;33;20218;-65
2022/11/03 01:12:18;;;;;;;0.87;0.87;;;;;;;12.23;90.34;95810.91;4306857;33;20182;-66
2022/11/03 01:14:51;;;;;;;1.83;1.13;;;;;;;11.90;89.56;95818.84;4275894;33;20196;-65
2022/11/03 01:17:25;;;;;;;1.50;1.30;;;;;;;12.23;90.04;95811.69;4314329;33;20265;-65
2022/11/03 01:19:56;;;;;;;1.13;1.03;;;;;;;11.99;90.35;95809.16;4300465;33;20201;-65
2022/11/03 01:22:26;;;;;;;0.80;0.77;;;;;;;12.07;89.73;95799.69;4298867;33;20208;-65
2022/11/03 01:24:52;;;;;;;0.67;0.67;;;;;;;11.93;92.22;95799.66;4317456;33;20181;-65
2022/11/03 01:27:21;;;;;;;1.77;1.67;;;;;;;11.85;89.81;95797.66;4300266;33;20201;-64
2022/11/03 01:29:47;;;;;;;0.80;0.80;;;;;;;12.21;90.47;95799.75;4315688;33;20190;-64
2022/11/03 01:32:14;;;;;;;1.07;1.07;;;;;;;11.90;89.62;95796.78;4307289;33;20229;-65
2022/11/03 01:34:39;;;;;;;1.60;0.90;;;;;;;11.63;88.32;95798.22;4317099;33;20265;-64
2022/11/03 01:37:06;;;;;;;1.10;1.00;;;;;;;11.93;90.33;95797.00;4302817;33;20252;-65
2022/11/03 01:39:33;;;;;;;0.97;0.97;;;;;;;11.87;89.57;95806.12;4313483;33;20213;-64
2022/11/03 01:42:00;;;;;;;8.63;1.13;;;;;;;11.89;89.93;95801.31;4298033;33;20211;-65
2022/11/03 01:44:35;;;;;;;0.90;0.90;;;;;;;11.94;90.20;95803.91;4281604;33;20272;-65
2022/11/03 01:47:26;;;;;;;1.40;1.17;;;;;;;12.20;90.37;95798.19;4268143;33;20194;-64
2022/11/03 01:50:18;;;;;;;1.30;1.20;;;;;;;11.69;89.66;95802.37;4293210;33;20201;-65
2022/11/03 01:52:57;;;;;;;0.50;0.50;;;;;;;11.41;91.46;95792.69;4315645;32;20190;-65
2022/11/03 01:55:27;;;;;;;0.67;0.67;;;;;;;11.68;90.44;95795.47;4291022;32;20201;-65
2022/11/03 01:57:59;;;;;;;2.47;1.60;;;;;;;11.52;90.68;95783.50;4314708;33;20181;-64
2022/11/03 02:00:24;;;;;;;2.03;1.53;;;;;;;11.67;91.22;95772.63;4308453;33;20194;-65
2022/11/03 02:02:52;;;;;;;0.93;0.93;;;;;;;11.73;89.31;95778.66;4311931;33;20213;-65
2022/11/03 02:05:26;;;;;;;4.10;1.80;;;;;;;11.51;89.52;95779.25;4306232;33;20178;-64
2022/11/03 02:08:11;;;;;;;0.93;0.87;;;;;;;11.62;90.70;95775.38;4312761;33;20269;-64
2022/11/03 02:10:39;;;;;;;5.83;1.37;;;;;;;11.68;89.11;95771.56;4278218;33;20201;-65
2022/11/03 02:13:33;;;;;;;1.10;1.10;;;;;;;11.81;88.66;95775.41;4298820;32;20259;-65
2022/11/03 02:16:02;;;;;;;1.60;1.17;;;;;;;11.55;89.27;95769.63;4301514;32;20194;-64
2022/11/03 02:18:32;;;;;;;0.73;0.73;;;;;;;11.76;89.32;95756.88;4300672;33;20193;-65
2022/11/03 02:21:08;;;;;;;1.23;1.13;;;;;;;11.94;89.16;95753.38;4316625;33;20186;-65
2022/11/03 02:24:21;;;;;;;0.80;0.80;;;;;;;11.60;90.08;95750.97;4305518;32;20169;-65
2022/11/03 02:26:49;;;;;;;1.63;0.93;;;;;;;11.51;89.27;95749.25;4269624;33;20193;-64
2022/11/03 02:29:15;;;;;;;0.50;0.50;;;;;;;11.60;90.57;95742.22;4299631;33;20182;-65
2022/11/03 02:31:46;;;;;;;1.13;0.97;;;;;;;11.31;90.02;95750.31;4254383;33;20278;-65
2022/11/03 02:35:04;;;;;;;3.37;1.13;;;;;;;11.13;90.61;95743.13;4266110;33;20258;-65
2022/11/03 02:37:37;;;;;;;2.57;1.10;;;;;;;11.32;92.21;95741.28;4267686;33;20217;-65
2022/11/03 02:40:13;;;;;;;0.80;0.80;;;;;;;11.58;90.34;95744.38;4284317;33;20197;-65
2022/11/03 02:42:44;;;;;;;1.37;1.27;;;;;;;11.54;90.50;95740.69;4265011;33;20186;-65
2022/11/03 02:45:13;;;;;;;1.10;1.07;;;;;;;11.52;89.17;95737.53;4286820;33;20198;-65
2022/11/03 02:47:41;;;;;;;1.03;1.03;;;;;;;11.51;91.31;95733.28;4257268;33;20183;-65
2022/11/03 02:50:09;;;;;;;1.60;1.50;;;;;;;11.68;91.44;95738.88;4284080;33;20249;-65
2022/11/03 02:52:42;;;;;;;1.60;1.50;;;;;;;11.77;90.36;95739.06;4309086;33;23821;-65
2022/11/03 02:55:25;;;;;;;0.63;0.63;;;;;;;11.63;89.57;95731.78;4297674;33;20206;-66
2022/11/03 02:58:22;;;;;;;0.70;0.70;;;;;;;11.56;90.34;95728.69;4295118;33;20224;-64
2022/11/03 03:00:54;;;;;;;2.33;1.37;;;;;;;11.33;90.78;95722.41;4301967;33;20212;-66
2022/11/03 03:03:39;;;;;;;0.77;0.60;;;;;;;11.40;91.13;95718.59;4302523;33;20190;-64
2022/11/03 03:06:11;;;;;;;1.00;0.90;;;;;;;11.34;91.40;95712.56;4306325;33;20190;-65
2022/11/03 03:09:07;;;;;;;0.77;0.77;;;;;;;11.03;91.08;95707.66;4324640;32;20204;-64
2022/11/03 03:11:36;;;;;;;1.00;1.00;;;;;;;11.10;91.72;95706.53;4304313;33;20217;-65
2022/11/03 03:14:40;;;;;;;0.87;0.87;;;;;;;11.40;91.79;95700.00;4302951;33;20253;-65
2022/11/03 03:17:31;;;;;;;1.07;1.03;;;;;;;11.07;90.49;95696.47;4313316;33;20296;-65
2022/11/03 03:20:30;;;;;;;3.57;1.37;;;;;;;11.22;90.60;95701.59;4313376;33;20185;-65
2022/11/03 03:23:06;;;;;;;1.57;1.27;;;;;;;11.06;90.34;95686.94;4327009;32;20221;-64
2022/11/03 03:25:35;;;;;;;0.70;0.70;;;;;;;11.07;89.86;95683.19;4305812;33;20228;-64
2022/11/03 03:28:14;;;;;;;1.17;1.03;;;;;;;10.99;90.73;95677.47;4315834;32;20228;-64
2022/11/03 03:30:43;;;;;;;0.97;0.97;;;;;;;11.14;91.59;95665.06;4284619;33;20366;-65
2022/11/03 03:33:11;;;;;;;0.80;0.80;;;;;;;11.11;90.76;95671.72;4282759;33;20229;-64
2022/11/03 03:35:41;;;;;;;3.47;1.67;;;;;;;11.21;91.78;95676.12;4310246;33;20285;-65
2022/11/03 03:38:24;;;;;;;0.70;0.70;;;;;;;11.26;91.25;95666.19;4290782;33;20274;-64
2022/11/03 03:41:02;;;;;;;0.80;0.80;;;;;;;11.13;91.69;95672.22;4311616;32;20189;-64
2022/11/03 03:43:31;;;;;;;1.73;1.63;;;;;;;11.31;91.50;95675.94;4315149;32;20198;-65
2022/11/03 03:46:05;;;;;;;2.00;0.87;;;;;;;10.97;90.89;95678.84;4322712;32;20207;-64
2022/11/03 03:48:31;;;;;;;1.80;1.70;;;;;;;11.07;93.38;95677.88;4318983;32;20173;-65
2022/11/03 03:51:00;;;;;;;1.50;1.40;;;;;;;10.78;91.35;95689.44;4338200;32;20303;-64
2022/11/03 03:53:28;;;;;;;3.60;1.10;;;;;;;11.03;91.83;95681.13;4275494;32;20253;-65
2022/11/03 03:55:55;;;;;;;5.77;0.90;;;;;;;11.08;91.67;95688.22;4323661;32;20181;-64
2022/11/03 03:58:21;;;;;;;0.90;0.90;;;;;;;10.90;90.37;95681.84;4322039;32;20190;-64
2022/11/03 04:00:46;;;;;;;1.03;1.03;;;;;;;11.10;90.60;95674.66;4333394;32;20200;-64
2022/11/03 04:03:28;;;;;;;5.13;1.60;;;;;;;11.24;91.07;95670.19;4294252;32;20186;-65
2022/11/03 04:05:54;;;;;;;1.03;1.03;;;;;;;11.25;90.81;95661.94;4301816;32;20181;-64
2022/11/03 04:08:21;;;;;;;1.30;1.30;;;;;;;10.97;89.96;95669.00;4338838;32;20204;-64
2022/11/03 04:24:34;;;;;;;1.20;1.20;;;;;;;10.65;89.34;95647.66;4300114;33;20256;-64
2022/11/03 04:27:18;;;;;;;1.03;1.00;;;;;;;10.82;92.04;95652.47;4305373;33;20196;-64
2022/11/03 04:29:57;;;;;;;6.97;2.13;;;;;;;10.93;92.54;95643.31;4303978;32;20222;-65
2022/11/03 04:32:24;;;;;;;0.93;0.93;;;;;;;10.95;90.31;95641.16;4331135;32;20279;-64
2022/11/03 04:34:52;;;;;;;1.57;1.30;;;;;;;10.73;92.55;95639.06;4307154;32;20210;-64
2022/11/03 04:37:17;;;;;;;2.07;1.97;;;;;;;10.81;91.66;95640.28;4339045;32;20204;-64
2022/11/03 04:39:45;;;;;;;4.07;2.17;;;;;;;10.21;88.89;95637.31;4340117;32;20182;-64
2022/11/03 04:42:17;;;;;;;1.43;1.33;;;;;;;9.76;89.04;95638.59;4316625;32;20215;-65
2022/11/03 04:44:47;;;;;;;1.43;1.43;;;;;;;9.81;94.08;95633.22;4341729;32;20197;-64
2022/11/03 04:47:20;;;;;;;1.03;1.03;;;;;;;9.86;94.53;95636.63;4301669;32;20256;-65
2022/11/03 04:50:14;;;;;;;2.27;2.10;;;;;;;10.17;95.12;95628.34;4330283;32;20189;-65
2022/11/03 04:52:40;;;;;;;1.47;1.47;;;;;;;10.21;91.84;95624.84;4334114;32;20307;-64
2022/11/03 04:55:15;;;;;;;1.60;1.57;;;;;;;9.90;93.14;95619.09;4333934;32;20344;-65
2022/11/03 04:57:43;;;;;;;1.53;1.43;;;;;;;10.14;94.26;95624.41;4302663;33;20174;-64
2022/11/03 05:00:16;;;;;;;1.03;1.03;;;;;;;10.23;94.22;95601.50;4335017;33;20277;-64
2022/11/03 05:02:48;;;;;;;1.37;1.27;;;;;;;10.47;93.83;95604.13;4331761;32;20181;-64
2022/11/03 05:05:20;;;;;;;2.23;1.97;;;;;;;10.31;92.82;95600.09;4330182;33;20200;-64
2022/11/03 05:07:50;;;;;;;1.10;1.10;;;;;;;10.11;90.93;95601.09;4292316;33;20191;-63
2022/11/03 05:10:19;;;;;;;1.47;1.37;;;;;;;10.28;93.17;95593.50;4324358;33;20197;-63
2022/11/03 05:12:46;;;;;;;1.60;1.50;;;;;;;10.14;93.39;95589.94;4311692;33;20185;-64
2022/11/03 05:15:36;;;;;;;0.80;0.80;;;;;;;10.27;93.03;95583.97;4296669;33;20186;-64
2022/11/03 05:18:24;;;;;;;0.87;0.87;;;;;;;10.48;93.20;95573.09;4324162;33;20198;-64
2022/11/03 05:21:02;;;;;;;1.63;1.53;;;;;;;10.29;91.95;95565.91;4316544;33;20182;-63
2022/11/03 05:23:43;;;;;;;1.53;1.43;;;;;;;10.51;91.57;95572.53;4328871;33;20181;-64
2022/11/03 05:26:25;;;;;;;0.97;0.97;;;;;;;10.33;92.42;95576.75;4329696;32;20208;-65
2022/11/03 05:29:03;;;;;;;1.50;1.40;;;;;;;10.19;91.74;95570.53;4299916;33;20204;-64
2022/11/03 05:31:31;;;;;;;1.13;1.13;;;;;;;10.16;91.14;95577.19;4296524;33;20194;-64
2022/11/03 05:34:00;;;;;;;4.20;1.73;;;;;;;10.18;91.80;95568.94;4289779;33;20233;-64
2022/11/03 05:36:29;;;;;;;1.30;1.30;;;;;;;10.16;92.28;95573.75;4324019;33;20255;-64
2022/11/03 05:39:26;;;;;;;1.43;1.33;;;;;;;10.10;93.10;95566.91;4339749;33;20189;-65
2022/11/03 05:41:54;;;;;;;0.93;0.93;;;;;;;10.30;92.62;95567.50;4338753;32;20265;-64
2022/11/03 05:44:35;;;;;;;1.13;1.13;;;;;;;10.05;92.86;95567.75;4318238;32;20173;-63
2022/11/03 05:47:31;;;;;;;0.67;0.67;;;;;;;10.10;93.47;95556.31;4324797;32;20431;-64
2022/11/03 05:50:30;;;;;;;1.40;1.37;;;;;;;10.11;92.34;95547.28;4339571;32;20216;-64
2022/11/03 05:53:04;;;;;;;1.03;1.03;;;;;;;10.05;93.04;95554.50;4307801;32;20271;-64
2022/11/03 05:55:34;;;;;;;2.13;2.03;;;;;;;10.16;94.65;95553.34;4320159;32;20185;-64
2022/11/03 05:58:21;;;;;;;1.50;1.50;;;;;;;10.40;93.44;95544.53;4323899;32;20194;-64
2022/11/03 06:00:46;;;;;;;1.73;1.17;;;;;;;9.98;93.44;95546.09;4306598;32;20187;-63
2022/11/03 06:03:22;;;;;;;1.17;1.10;;;;;;;10.18;91.08;95537.16;4312267;32;20190;-64
2022/11/03 06:05:48;;;;;;;1.73;1.63;;;;;;;9.88;91.49;95538.28;4296518;33;20201;-64
2022/11/03 06:08:35;;;;;;;1.50;1.40;;;;;;;10.14;92.87;95536.13;4338474;32;20193;-65
2022/11/03 06:11:03;;;;;;;1.73;1.63;;;;;;;10.06;92.33;95539.41;4313891;33;20269;-65
2022/11/03 06:13:43;;;;;;;1.13;1.13;;;;;;;10.13;93.81;95523.94;4338588;32;20185;-65
2022/11/03 06:16:26;;;;;;;2.30;1.00;;;;;;;9.84;94.17;95534.63;4357315;32;20185;-65
2022/11/03 06:18:54;;;;;;;2.93;1.23;;;;;;;9.86;96.03;95527.19;4312570;32;20190;-64
2022/11/03 06:21:24;;;;;;;1.13;1.13;;;;;;;9.67;94.54;95536.94;4333416;32;20189;-65
2022/11/03 06:24:01;;;;;;;2.20;2.10;;;;;;;9.84;94.61;95527.47;4332102;32;20177;-64
2022/11/03 06:26:30;;;;;;;1.30;1.20;;;;;;;9.85;94.21;95528.25;4290408;33;20240;-65
2022/11/03 06:29:11;;;;;;;0.87;0.87;;;;;;;9.96;94.56;95532.38;4315283;32;20187;-65
2022/11/03 06:31:38;;;;;;;1.47;1.40;;;;;;;10.05;95.73;95540.47;4278607;33;20291;-65
2022/11/03 06:34:21;;;;;;;0.90;0.90;;;;;;;9.95;94.27;95533.44;4318477;32;20185;-65
2022/11/03 06:36:46;;;;;;;1.60;1.60;;;;;;;10.00;95.30;95536.81;4332125;32;20193;-64
2022/11/03 06:39:23;;;;;;;0.70;0.70;;;;;;;9.46;90.89;95541.66;4342532;32;20190;-64
2022/11/03 06:41:55;;;;;;;1.03;1.03;;;;;;;9.63;94.43;95536.72;4320562;32;20204;-65
2022/11/03 06:44:32;;;;;;;0.73;0.73;;;;;;;9.96;95.12;95535.03;4309271;32;20201;-64
2022/11/03 06:47:13;;;;;;;1.13;1.13;;;;;;;10.09;95.39;95536.19;4338812;32;20248;-64
2022/11/03 06:49:40;;;;;;;1.30;1.30;;;;;;;9.88;93.36;95533.00;4319082;33;20305;-65
2022/11/03 06:52:25;;;;;;;1.20;1.13;;;;;;;9.96;93.64;95530.53;4295622;32;20226;-65
2022/11/03 06:55:18;;;;;;;1.33;1.23;;;;;;;10.06;93.37;95521.63;4286875;33;20185;-64
2022/11/03 06:57:47;;;;;;;1.20;1.20;;;;;;;10.03;92.49;95529.38;4275493;33;20208;-64
2022/11/03 07:00:29;;;;;;;1.70;1.60;;;;;;;9.11;88.05;95538.28;4310470;33;20208;-64
2022/11/03 07:03:09;;;;;;;2.83;1.17;;;;;;;9.18;87.23;95530.78;4295158;33;20202;-64
2022/11/03 07:05:36;;;;;;;1.50;1.40;;;;;;;9.14;86.72;95539.59;4310193;33;20221;-63
2022/11/03 07:08:24;;;;;;;3.77;1.33;;;;;;;9.23;86.23;95522.03;4296912;32;20260;-63
2022/11/03 07:11:17;;;;;;;1.20;1.20;;;;;;;8.97;86.92;95518.81;4316403;33;20224;-64
2022/11/03 07:13:47;;;;;;;3.30;1.83;;;;;;;8.87;87.47;95519.69;4313822;33;20200;-63
2022/11/03 07:16:38;;;;;;;1.30;1.30;;;;;;;8.97;87.48;95516.16;4315100;33;20275;-65
2022/11/03 07:19:29;;;;;;;2.57;1.80;;;;;;;8.55;88.55;95514.13;4298651;33;20201;-62
2022/11/03 07:22:05;;;;;;;1.97;1.87;;;;;;;8.35;90.25;95506.31;4296228;33;20275;-64
2022/11/03 07:24:44;;;;;;;1.83;1.67;;;;;;;8.21;90.70;95504.25;4291414;33;20282;-61
2022/11/03 07:27:29;;;;;;;1.30;1.17;;;;;;;8.26;91.08;95506.09;4312406;33;20208;-63
2022/11/03 07:30:04;;;;;;;1.73;1.63;;;;;;;8.31;90.70;95510.56;4279295;33;20279;-63
2022/11/03 07:32:35;;;;;;;3.30;1.90;;;;;;;7.91;92.15;95514.97;4300905;33;20289;-64
2022/11/03 07:35:34;;;;;;;1.70;1.60;;;;;;;7.83;92.84;95518.19;4305969;33;20382;-64
2022/11/03 07:38:31;;;;;;;2.03;1.83;;;;;;;7.98;92.74;95512.84;4303617;33;20396;-64
2022/11/03 07:40:59;;;;;;;2.30;2.10;;;;;;;8.10;92.43;95510.69;4298117;33;20316;-63
2022/11/03 07:43:54;;;;;;;1.00;1.00;;;;;;;7.88;93.21;95510.25;4271300;32;20282;-64
2022/11/03 07:46:25;;;;;;;0.77;0.77;;;;;;;7.96;92.97;95509.69;4317510;32;20287;-63
2022/11/03 07:49:03;;;;;;;1.53;1.53;;;;;;;7.83;93.44;95511.06;4322118;32;20291;-63
2022/11/03 07:51:37;;;;;;;1.03;1.03;;;;;;;7.93;93.57;95502.28;4327655;32;20281;-63
2022/11/03 07:54:22;;;;;;;1.00;1.00;;;;;;;8.10;92.91;95494.03;4324510;32;20286;-64
2022/11/03 07:56:51;;;;;;;0.90;0.90;;;;;;;8.14;92.52;95493.19;4314871;32;20283;-63
2022/11/03 07:59:20;;;;;;;1.33;1.33;;;;;;;8.32;91.86;95494.44;4334471;32;20308;-63
2022/11/03 08:01:53;;;;;;;1.00;1.00;;;;;;;8.48;91.40;95489.84;4345730;32;20288;-64
2022/11/03 08:04:22;;;;;;;1.03;1.03;;;;;;;8.35;92.16;95474.59;4347092;32;20278;-63
2022/11/03 08:06:48;;;;;;;0.97;0.97;;;;;;;8.21;92.90;95474.41;4328099;32;20290;-63
2022/11/03 08:09:17;;;;;;;1.40;1.30;;;;;;;8.27;92.95;95470.69;4299235;33;20295;-63
2022/11/03 08:12:09;;;;;;;4.90;1.57;;;;;;;8.28;93.07;95459.84;4296342;33;20207;-64
2022/11/03 08:14:36;;;;;;;0.83;0.83;;;;;;;8.22;92.90;95460.13;4270633;33;20271;-63
2022/11/03 08:17:04;;;;;;;1.20;1.07;;;;;;;8.54;91.51;95451.72;4311392;32;20377;-63
2022/11/03 08:19:32;;;;;;;1.40;1.33;;;;;;;8.63;91.35;95447.44;4324262;32;20301;-63
2022/11/03 08:21:58;;;;;;;1.20;1.20;;;;;;;8.80;90.36;95444.38;4296344;32;20283;-63
2022/11/03 08:24:26;;;;;;;0.93;0.93;;;;;;;8.91;89.57;95436.06;4291009;32;20300;-63
2022/11/03 08:26:51;;;;;;;1.20;1.20;;;;;;;9.04;89.13;95423.25;4339902;32;20224;-63
2022/11/03 08:29:20;;;;;;;1.60;1.60;;;;;;;8.97;89.48;95428.84;4325058;32;20322;-63
2022/11/03 08:31:46;;;;;;;4.53;1.80;;;;;;;8.99;89.55;95410.06;4314493;33;20204;-63
2022/11/03 08:34:13;;;;;;;1.23;1.23;;;;;;;9.08;89.58;95411.81;4340964;32;20301;-63
2022/11/03 08:36:39;;;;;;;1.30;1.30;;;;;;;9.15;89.51;95404.31;4327372;32;20189;-63
2022/11/03 08:39:06;;;;;;;1.37;1.03;;;;;;;9.16;89.66;95407.75;4317565;32;20341;-63
2022/11/03 08:41:32;;;;;;;1.83;1.50;;;;;;;9.23;89.53;95397.63;4342096;32;20270;-63
2022/11/03 08:43:57;;;;;;;1.27;1.27;;;;;;;9.23;89.98;95394.97;4338247;32;20364;-63
2022/11/03 08:46:28;;;;;;;1.20;1.20;;;;;;;9.28;89.94;95392.28;4321113;32;20278;-63
2022/11/03 08:48:53;;;;;;;1.20;1.20;;;;;;;9.39;90.29;95391.06;4331909;32;20335;-63
2022/11/03 08:51:20;;;;;;;2.57;2.37;;;;;;;9.40;90.18;95390.00;4346067;32;20186;-63
2022/11/03 08:53:49;;;;;;;1.50;1.20;;;;;;;9.54;89.78;95380.31;4332935;32;20197;-63
2022/11/03 08:56:27;;;;;;;1.07;1.07;;;;;;;9.82;89.12;95380.44;4296744;33;20292;-64
2022/11/03 08:58:52;;;;;;;3.90;1.83;;;;;;;9.85;89.20;95379.88;4322065;32;20212;-63
2022/11/03 09:01:17;;;;;;;1.77;1.67;;;;;;;9.78;89.55;95371.50;4289412;33;20198;-63
2022/11/03 09:03:44;;;;;;;1.30;1.27;;;;;;;9.95;89.37;95369.16;4279100;33;20288;-63
2022/11/03 09:06:10;;;;;;;0.97;0.97;;;;;;;10.09;88.86;95374.50;4317571;33;20190;-63
2022/11/03 09:08:37;;;;;;;0.93;0.93;;;;;;;10.33;88.13;95360.09;4337158;33;22350;-63
2022/11/03 09:11:07;;;;;;;1.03;0.93;;;;;;;10.27;88.36;95366.53;4333894;32;20256;-63
2022/11/03 09:13:33;;;;;;;1.37;1.37;;;;;;;10.42;87.63;95364.72;4318950;33;20211;-63
2022/11/03 09:16:00;;;;;;;0.93;0.93;;;;;;;10.43;87.43;95366.28;4320857;32;20194;-63
2022/11/03 09:18:26;;;;;;;1.17;1.17;;;;;;;10.49;87.43;95352.66;4326435;32;20201;-63
2022/11/03 09:20:53;;;;;;;1.30;1.30;;;;;;;10.57;86.94;95361.81;4339983;32;20181;-63
2022/11/03 09:23:18;;;;;;;1.87;1.77;;;;;;;10.78;86.43;95349.78;4341078;32;20213;-63
2022/11/03 09:25:43;;;;;;;1.13;1.10;;;;;;;10.86;87.15;95346.44;4335819;32;20227;-63
2022/11/03 09:28:10;;;;;;;1.87;1.77;;;;;;;10.88;86.58;95336.31;4339940;32;20299;-63
2022/11/03 09:30:37;;;;;;;1.10;1.10;;;;;;;11.12;85.67;95330.81;4313331;32;20223;-63
2022/11/03 09:33:04;;;;;;;1.40;1.40;;;;;;;11.13;86.04;95323.63;4359841;32;20268;-63
2022/11/03 09:35:30;;;;;;;1.43;1.43;;;;;;;11.23;85.57;95323.41;4338501;32;20181;-63
2022/11/03 09:37:57;;;;;;;0.70;0.70;;;;;;;11.28;85.65;95326.75;4314732;32;20207;-63
2022/11/03 09:40:26;;;;;;;2.00;1.90;;;;;;;11.44;85.02;95318.47;4308387;32;20181;-63
2022/11/03 09:42:58;;;;;;;0.67;0.53;;;;;;;11.64;84.31;95313.47;4308675;33;20252;-63
2022/11/03 09:45:26;;;;;;;1.50;1.33;;;;;;;11.68;84.26;95314.47;4333483;32;20204;-63
2022/11/03 09:47:55;;;;;;;1.10;1.10;;;;;;;11.69;84.18;95318.69;4338695;32;20182;-63
2022/11/03 09:50:25;;;;;;;1.00;1.00;;;;;;;11.85;83.44;95313.06;4331049;32;20189;-63
2022/11/03 09:52:54;;;;;;;1.40;1.27;;;;;;;11.89;83.58;95306.84;4336823;32;20255;-63
2022/11/03 09:55:25;;;;;;;0.90;0.90;;;;;;;11.96;83.11;95309.09;4337479;32;20192;-63
2022/11/03 09:58:24;;;;;;;0.93;0.93;;;;;;;12.08;83.69;95306.66;4328856;32;20182;-63
2022/11/03 10:01:12;;;;;;;0.67;0.67;;;;;;;12.20;82.49;95303.47;4307229;33;20200;-63
2022/11/03 10:03:39;;;;;;;1.07;1.07;;;;;;;12.29;82.05;95304.28;4310408;32;20192;-63
2022/11/03 10:06:07;;;;;;;1.00;1.00;;;;;;;12.27;82.33;95298.50;4346335;32;20256;-63
2022/11/03 10:08:45;;;;;;;1.27;0.97;;;;;;;12.28;81.93;95295.53;4305440;32;20204;-63
2022/11/03 10:11:16;;;;;;;0.50;0.50;;;;;;;12.39;81.87;95293.41;4320197;32;20207;-63
2022/11/03 10:13:52;;;;;;;1.07;1.07;;;;;;;12.47;81.55;95276.69;4352088;32;20216;-63
2022/11/03 10:16:23;;;;;;;2.70;1.40;;;;;;;12.56;81.31;95268.75;4302729;33;20280;-63
2022/11/03 10:18:50;;;;;;;1.40;1.30;;;;;;;12.52;80.84;95273.13;4318222;32;20204;-63
2022/11/03 10:21:26;;;;;;;1.13;1.13;;;;;;;12.59;80.81;95265.50;4319886;33;20181;-63
2022/11/03 10:23:51;;;;;;;0.87;0.87;;;;;;;12.58;81.66;95258.59;4348105;32;20197;-63
2022/11/03 10:26:18;;;;;;;1.07;1.07;;;;;;;12.67;80.27;95262.09;4335997;32;20190;-63
2022/11/03 10:29:08;;;;;;;1.83;1.73;;;;;;;12.82;79.25;95250.22;4330028;32;20220;-64
2022/11/03 10:31:37;;;;;;;3.27;2.10;;;;;;;12.96;78.40;95245.56;4324460;32;20177;-63
2022/11/03 10:34:22;;;;;;;5.63;1.50;;;;;;;12.90;78.92;95244.91;4298795;33;20255;-63
2022/11/03 10:36:49;;;;;;;1.30;1.27;;;;;;;13.00;78.94;95241.97;4321574;32;20185;-64
2022/11/03 10:39:32;;;;;;;1.07;1.07;;;;;;;13.16;77.67;95239.69;4352345;32;20186;-64
2022/11/03 10:41:59;;;;;;;2.00;1.33;;;;;;;13.16;76.91;95233.56;4318933;32;20242;-64
2022/11/03 10:44:30;;;;;;;1.57;1.47;;;;;;;13.20;77.16;95240.62;4324904;32;20231;-64
2022/11/03 10:47:04;;;;;;;2.23;2.00;;;;;;;13.23;76.82;95236.56;4314834;32;20186;-64
2022/11/03 10:49:39;;;;;;;2.47;1.43;;;;;;;13.29;76.39;95233.44;4298579;33;20281;-64
2022/11/03 10:52:19;;;;;;;0.73;0.73;;;;;;;13.13;77.30;95226.94;4331057;32;20203;-64
2022/11/03 10:55:08;;;;;;;2.53;1.33;;;;;;;13.26;76.96;95226.06;4338674;32;20196;-64
2022/11/03 10:57:35;;;;;;;1.90;1.80;;;;;;;13.33;76.42;95222.94;4336036;32;20203;-64
2022/11/03 11:00:03;;;;;;;37.60;3.00;;;;;;;13.31;76.44;95215.25;4338110;32;20307;-64
2022/11/03 11:02:35;;;;;;;0.50;0.50;;;;;;;13.41;76.28;95208.84;4317116;33;20204;-63
2022/11/03 11:05:08;;;;;;;1.03;1.03;;;;;;;13.36;76.59;95216.97;4317038;33;20228;-63
2022/11/03 11:07:45;;;;;;;0.90;0.90;;;;;;;13.47;75.48;95212.13;4299493;33;20194;-63
2022/11/03 11:10:19;;;;;;;1.43;1.33;;;;;;;13.42;75.66;95218.41;4298532;33;20209;-64
2022/11/03 11:13:27;;;;;;;2.57;1.37;;;;;;;13.40;75.86;95209.94;4322597;32;20185;-64
2022/11/03 11:15:56;;;;;;;1.10;1.10;;;;;;;13.37;76.55;95200.69;4318908;32;20211;-63
2022/11/03 11:18:31;;;;;;;5.50;1.73;;;;;;;13.39;76.49;95195.81;4334276;32;20265;-64
2022/11/03 11:21:29;;;;;;;0.67;0.67;;;;;;;13.47;76.09;95202.25;4319645;32;20172;-64
2022/11/03 11:23:57;;;;;;;1.53;1.47;;;;;;;13.45;76.28;95193.78;4339893;32;20191;-64
2022/11/03 11:26:34;;;;;;;1.20;1.20;;;;;;;13.39;77.43;95195.81;4323119;32;20217;-64
2022/11/03 11:29:08;;;;;;;1.07;1.07;;;;;;;13.66;76.40;95197.38;4302134;32;20205;-64
2022/11/03 11:31:39;;;;;;;2.17;1.47;;;;;;;13.61;75.90;95200.22;4301744;32;20184;-64
2022/11/03 11:34:20;;;;;;;1.43;1.33;;;;;;;13.58;76.37;95195.50;4325323;32;20181;-64
2022/11/03 11:37:20;;;;;;;0.70;0.70;;;;;;;13.68;75.16;95195.19;4343624;32;20193;-64
2022/11/03 11:39:49;;;;;;;1.17;1.17;;;;;;;13.59;75.71;95194.41;4343630;32;20189;-63
2022/11/03 11:42:20;;;;;;;3.33;2.07;;;;;;;13.66;76.16;95193.94;4349912;32;20208;-64
2022/11/03 11:44:57;;;;;;;1.60;1.40;;;;;;;13.76;78.69;95189.03;4333595;32;20200;-64
2022/11/03 11:47:45;;;;;;;3.70;1.77;;;;;;;13.80;79.10;95183.09;4320970;32;20235;-64
2022/11/03 11:50:21;;;;;;;1.80;1.70;;;;;;;13.63;79.97;95174.03;4317510;33;20261;-64
2022/11/03 11:53:12;;;;;;;1.23;1.23;;;;;;;13.75;80.04;95176.03;4322052;32;20210;-64
2022/11/03 11:55:55;;;;;;;1.43;1.37;;;;;;;13.78;79.95;95167.41;4310330;32;20186;-64
2022/11/03 11:58:23;;;;;;;1.63;1.53;;;;;;;13.74;79.87;95177.91;4306826;32;20244;-64
2022/11/03 12:00:58;;;;;;;1.50;1.40;;;;;;;13.72;80.18;95172.09;4318750;32;20185;-64
2022/11/03 12:03:46;;;;;;;2.07;1.90;;;;;;;13.79;80.16;95171.63;4322283;32;20178;-64
2022/11/03 12:06:16;;;;;;;1.53;1.53;;;;;;;13.81;80.04;95156.09;4308100;33;20261;-64
2022/11/03 12:08:43;;;;;;;3.40;3.10;;;;;;;13.94;79.42;95149.00;4316400;33;20194;-64
2022/11/03 12:11:13;;;;;;;2.73;2.53;;;;;;;13.93;79.43;95145.56;4295597;33;20190;-64
2022/11/03 12:13:49;;;;;;;2.60;1.93;;;;;;;13.92;79.49;95143.22;4304832;32;20205;-64
2022/11/03 12:16:34;;;;;;;1.43;1.33;;;;;;;13.97;79.36;95151.81;4303616;33;20189;-63
2022/11/03 12:19:33;;;;;;;2.27;1.97;;;;;;;13.86;79.97;95150.59;4320836;33;20213;-63
2022/11/03 12:22:01;;;;;;;1.90;1.80;;;;;;;13.70;80.84;95153.00;4318610;32;20265;-63
2022/11/03 12:24:29;;;;;;;1.10;0.93;;;;;;;13.90;80.10;95146.22;4312068;33;20186;-63
2022/11/03 12:26:55;;;;;;;1.63;1.63;;;;;;;13.85;80.26;95145.59;4296763;33;20178;-64